Aérodrome :
LOGIN :

S'inscrire | Disclaimer

   EN    FR    IT 

 










Légende :    VFR   VFR Marginal   IFR   IFR Intensif   IFR Très Intensif
Visi : 
Plafond : 
>= 8 km
>= 3000ft
5 à 8 km
1000 à 3000 ft
1500m à 5 km
500 à 1000 ft
800 à 1500m
200 à 500 ft
< 800m
< 200 ft
Symboles :   Orages  Brouillard  Fortes neiges  Fortes précipitations  Vent > 20 kt
SIGMETs :   Divers  Orages  Givrage  Turbulence  Onde Orograph.  Cendres Volcan.







- Altitude de l'aérodrome : 348 ft
- Code IATA : TSR


LRTR - Timisoara

DERNIER METAR :
  • 190330Z 07001KT 8000 -RA BKN009 SCT017 OVC030 02/02 Q1014 R11/290095

METARs EXPIRÉS :
  • 190300Z 06003KT 7000 -RA BKN010 SCT018 OVC030 02/02 Q1014 R11/290095
  • 190230Z 06005KT 7000 -RA BKN010 OVC030 02/02 Q1014 R11/290095
  • 190200Z 04007KT 6000 -RA BKN012 OVC030 02/02 Q1014 R11/290095
  • 190130Z 05005KT 6000 -RA FEW011 BKN022 OVC040 02/02 Q1014 R11/290095
  • 190100Z 06006KT 6000 -RA FEW012 BKN022 OVC045 02/02 Q1015 R11/290095

TAF AMD TAF LRTR
Valide du 19 à 02h jusqu'au 20 à 00h UTC


190237Z 1902/1924 VRB04KT 5000 -RA BR BKN010 OVC030
TEMPO 1902/1906 3000 -RASN BR BKN005 OVC020
BECMG 1909/1911 9999 NSW BKN015 BKN040
Pas de NOTAMs connus pour ce terrain.



MET'MAP, la Météo Aéronautique d'un coup d'oeil ! - Copyright ORBIFLY Décembre 2007 - Disclaimer

ORBIFLY MET'MAP TEAM :

Programmation & Développement : Alexandra Zaïnal
Conception & Développement : Baudouin d'Aumeries
Co-Programmation & Développement : Marc-Olivier Méhu
Soutien technique & logistique : Manuel Goepfert

Contact : metmap@orbifly.com




SOURCES & CREDITS :

   NOAA